createdAt,value
2018-06-03T00:00:43.368Z,0.00
2018-06-03T00:01:57.950Z,0.00
2018-06-03T00:02:43.683Z,0.00
2018-06-03T00:03:43.945Z,0.00
2018-06-03T00:04:43.967Z,0.00
2018-06-03T00:05:44.106Z,0.00
2018-06-03T00:06:44.244Z,0.00
2018-06-03T00:07:44.388Z,0.00
2018-06-03T00:08:44.535Z,0.00
2018-06-03T00:09:44.680Z,0.00
2018-06-03T00:10:44.823Z,0.00
2018-06-03T00:11:44.968Z,0.00
2018-06-03T00:12:45.106Z,0.00
2018-06-03T00:13:45.253Z,0.00
2018-06-03T00:16:17.752Z,0.00
2018-06-03T00:17:17.900Z,0.00
2018-06-03T00:18:18.255Z,0.00
2018-06-03T00:19:18.136Z,0.00
2018-06-03T00:20:18.273Z,0.00
2018-06-03T00:21:18.468Z,0.00
2018-06-03T00:22:18.618Z,0.00
2018-06-03T00:23:18.762Z,0.00
2018-06-03T00:24:18.907Z,0.00
2018-06-03T00:25:52.974Z,0.00
2018-06-03T00:26:19.229Z,0.00
2018-06-03T00:27:19.383Z,0.00
2018-06-03T00:28:19.539Z,0.00
2018-06-03T00:29:19.676Z,0.00
2018-06-03T00:30:19.816Z,0.00
2018-06-03T00:31:19.960Z,0.00
2018-06-03T00:32:20.115Z,0.00
2018-06-03T00:33:20.258Z,0.00
2018-06-03T00:34:20.401Z,0.00
2018-06-03T00:35:20.541Z,0.00
2018-06-03T00:36:20.760Z,0.00
2018-06-03T00:37:20.879Z,0.00
2018-06-03T00:38:20.984Z,0.00
2018-06-03T00:39:21.096Z,0.00
2018-06-03T00:40:21.225Z,0.00
2018-06-03T00:41:21.307Z,0.00
2018-06-03T00:42:21.328Z,0.00
2018-06-03T00:43:21.466Z,0.00
2018-06-03T00:44:21.640Z,0.00
2018-06-03T00:45:21.855Z,0.00
2018-06-03T00:46:21.959Z,0.00
2018-06-03T00:47:22.069Z,0.00
2018-06-03T00:48:22.085Z,0.00
2018-06-03T00:49:22.285Z,0.00
2018-06-03T00:50:22.302Z,0.00
2018-06-03T00:51:22.449Z,0.00
2018-06-03T00:52:22.592Z,0.00
2018-06-03T00:53:22.772Z,0.00
2018-06-03T00:54:22.875Z,0.00
2018-06-03T00:55:23.023Z,0.00
2018-06-03T00:56:23.154Z,0.00
2018-06-03T00:57:24.252Z,0.00
2018-06-03T00:58:23.412Z,0.00
2018-06-03T00:59:23.574Z,0.00
2018-06-03T01:00:23.708Z,0.00
2018-06-03T01:01:23.906Z,0.00
2018-06-03T01:02:24.043Z,0.00
2018-06-03T01:03:24.195Z,0.00
2018-06-03T01:04:24.325Z,0.00
2018-06-03T01:05:24.470Z,0.00
2018-06-03T01:06:24.653Z,0.00
2018-06-03T01:07:24.881Z,0.00
2018-06-03T01:08:24.975Z,0.00
2018-06-03T01:09:25.082Z,0.00
2018-06-03T01:10:25.110Z,0.00
2018-06-03T01:11:25.259Z,0.00
2018-06-03T01:12:25.404Z,0.00
2018-06-03T01:13:25.626Z,0.00
2018-06-03T01:14:25.661Z,0.00
2018-06-03T01:15:25.840Z,0.00
2018-06-03T01:16:25.982Z,0.00
2018-06-03T01:17:26.159Z,0.00
2018-06-03T01:18:26.307Z,0.00
2018-06-03T01:19:26.448Z,0.00
2018-06-03T01:20:26.691Z,0.00
2018-06-03T01:21:26.711Z,0.00
2018-06-03T01:22:26.920Z,0.00
2018-06-03T01:23:27.013Z,0.00
2018-06-03T01:24:27.131Z,0.00
2018-06-03T01:25:27.148Z,0.00
2018-06-03T01:26:27.291Z,0.00
2018-06-03T01:27:27.429Z,0.00
2018-06-03T01:28:27.570Z,0.00
2018-06-03T01:29:27.776Z,0.00
2018-06-03T01:30:27.882Z,0.00
2018-06-03T01:31:27.990Z,0.00
2018-06-03T01:32:28.105Z,0.00
2018-06-03T01:33:28.117Z,0.00
2018-06-03T01:34:28.321Z,0.00
2018-06-03T01:35:28.431Z,0.00
2018-06-03T01:36:28.447Z,0.00
2018-06-03T01:37:28.648Z,0.00
2018-06-03T01:38:28.660Z,0.00
2018-06-03T01:39:28.804Z,0.00
2018-06-03T01:40:28.945Z,0.00
2018-06-03T01:41:29.188Z,0.00
2018-06-03T01:42:29.204Z,0.00
2018-06-03T01:43:29.404Z,0.00
2018-06-03T01:44:29.509Z,0.00
2018-06-03T01:45:29.623Z,0.00
2018-06-03T01:46:29.689Z,0.00
2018-06-03T01:47:29.841Z,0.00
2018-06-03T01:48:29.980Z,0.00
2018-06-03T01:49:30.117Z,0.00
2018-06-03T01:50:30.309Z,0.00
2018-06-03T01:51:30.436Z,0.00
2018-06-03T01:52:30.742Z,0.00
2018-06-03T01:53:30.804Z,0.00
2018-06-03T01:54:31.013Z,0.00
2018-06-03T01:55:31.040Z,0.00
2018-06-03T01:56:31.186Z,0.00
2018-06-03T01:57:31.319Z,0.00
2018-06-03T01:58:31.462Z,0.00
2018-06-03T01:59:31.665Z,0.00
2018-06-03T02:00:31.689Z,0.00
2018-06-03T02:01:31.825Z,0.00
2018-06-03T02:02:31.995Z,0.00
2018-06-03T02:03:32.128Z,0.00
2018-06-03T02:04:32.288Z,0.00
2018-06-03T02:05:32.467Z,0.00
2018-06-03T02:06:32.630Z,0.00
2018-06-03T02:07:32.764Z,0.00
2018-06-03T02:08:33.076Z,0.00
2018-06-03T02:09:33.088Z,0.00
2018-06-03T02:10:33.271Z,0.00
2018-06-03T02:11:33.404Z,0.00
2018-06-03T02:12:33.549Z,0.00
2018-06-03T02:13:33.685Z,0.00
2018-06-03T02:14:33.912Z,0.00
2018-06-03T02:15:34.022Z,0.00
2018-06-03T02:16:34.030Z,0.00
2018-06-03T02:17:34.171Z,0.00
2018-06-03T02:18:34.348Z,0.00
2018-06-03T02:19:34.558Z,0.00
2018-06-03T02:20:35.586Z,0.00
2018-06-03T02:21:34.797Z,0.00
2018-06-03T02:22:34.920Z,0.00
2018-06-03T02:23:35.594Z,0.00
2018-06-03T02:24:35.257Z,0.00
2018-06-03T02:25:35.391Z,0.00
2018-06-03T02:26:35.529Z,0.00
2018-06-03T02:27:35.737Z,0.00
2018-06-03T02:28:35.750Z,0.00
2018-06-03T02:29:35.960Z,0.00
2018-06-03T02:30:36.062Z,0.00
2018-06-03T02:31:36.081Z,0.00
2018-06-03T02:32:36.238Z,0.00
2018-06-03T02:33:36.391Z,0.00
2018-06-03T02:34:36.529Z,0.00
2018-06-03T02:35:36.670Z,0.00
2018-06-03T02:36:36.825Z,0.00
2018-06-03T02:37:36.994Z,0.00
2018-06-03T02:38:37.260Z,0.00
2018-06-03T02:39:37.267Z,0.00
2018-06-03T02:40:37.408Z,0.00
2018-06-03T02:41:37.597Z,0.00
2018-06-03T02:42:37.723Z,0.00
2018-06-03T02:43:37.893Z,0.00
2018-06-03T02:44:38.030Z,0.00
2018-06-03T02:45:38.232Z,4.00
2018-06-03T02:46:38.319Z,4.00
2018-06-03T02:47:38.376Z,0.00
2018-06-03T02:48:38.510Z,0.00
2018-06-03T02:49:38.757Z,0.00
2018-06-03T02:50:38.867Z,4.00
2018-06-03T02:51:38.985Z,4.00
2018-06-03T02:52:38.995Z,4.00
2018-06-03T02:53:39.130Z,4.00
2018-06-03T02:54:39.318Z,4.00
2018-06-03T02:55:39.457Z,4.00
2018-06-03T02:56:39.592Z,8.00
2018-06-03T02:57:39.757Z,4.00
2018-06-03T02:58:39.894Z,8.00
2018-06-03T02:59:40.080Z,8.00
2018-06-03T03:00:40.193Z,8.00
2018-06-03T03:01:41.236Z,12.00
2018-06-03T03:02:40.578Z,8.00
2018-06-03T03:03:40.700Z,12.00
2018-06-03T03:04:40.799Z,8.00
2018-06-03T03:05:40.825Z,12.00
2018-06-03T03:06:41.010Z,16.00
2018-06-03T03:07:41.226Z,12.00
2018-06-03T03:08:41.336Z,16.00
2018-06-03T03:09:41.441Z,16.00
2018-06-03T03:10:41.555Z,20.00
2018-06-03T03:11:41.662Z,20.00
2018-06-03T03:12:41.770Z,20.00
2018-06-03T03:13:41.786Z,20.00
2018-06-03T03:14:41.987Z,24.00
2018-06-03T03:15:42.102Z,20.00
2018-06-03T03:16:42.210Z,20.00
2018-06-03T03:17:42.223Z,28.00
2018-06-03T03:18:42.456Z,28.00
2018-06-03T03:19:42.447Z,32.00
2018-06-03T03:20:42.607Z,32.00
2018-06-03T03:21:42.853Z,36.00
2018-06-03T03:22:42.868Z,36.00
2018-06-03T03:23:43.071Z,40.00
2018-06-03T03:24:43.184Z,44.00
2018-06-03T03:25:43.199Z,44.00
2018-06-03T03:26:43.337Z,48.00
2018-06-03T03:27:43.517Z,56.00
2018-06-03T03:28:43.720Z,60.00
2018-06-03T03:29:43.829Z,64.00
2018-06-03T03:30:43.962Z,72.00
2018-06-03T03:31:43.969Z,76.00
2018-06-03T03:32:44.156Z,80.00
2018-06-03T03:33:44.367Z,84.00
2018-06-03T03:34:44.392Z,88.00
2018-06-03T03:35:44.652Z,92.00
2018-06-03T03:36:44.797Z,92.00
2018-06-03T03:37:44.911Z,96.00
2018-06-03T03:38:45.025Z,100.00
2018-06-03T03:39:45.126Z,104.00
2018-06-03T03:40:45.158Z,112.00
2018-06-03T03:41:45.342Z,120.00
2018-06-03T03:42:45.525Z,128.00
2018-06-03T03:43:45.651Z,132.00
2018-06-03T03:44:45.876Z,136.00
2018-06-03T03:45:45.983Z,140.00
2018-06-03T03:46:46.145Z,144.00
2018-06-03T03:47:46.147Z,148.00
2018-06-03T03:48:46.288Z,152.00
2018-06-03T03:49:47.322Z,156.00
2018-06-03T03:50:46.620Z,164.00
2018-06-03T03:51:46.757Z,172.00
2018-06-03T03:52:46.999Z,184.00
2018-06-03T03:53:47.013Z,188.00
2018-06-03T03:54:47.171Z,192.00
2018-06-03T03:55:47.308Z,192.00
2018-06-03T03:56:47.449Z,196.00
2018-06-03T03:57:47.704Z,196.00
2018-06-03T03:58:47.807Z,200.00
2018-06-03T03:59:47.919Z,208.00
2018-06-03T04:00:48.031Z,208.00
2018-06-03T04:01:48.139Z,212.00
2018-06-03T04:02:48.250Z,220.00
2018-06-03T04:03:48.263Z,232.00
2018-06-03T04:04:48.463Z,248.00
2018-06-03T04:05:48.598Z,252.00
2018-06-03T04:06:48.784Z,260.00
2018-06-03T04:07:48.994Z,268.00
2018-06-03T04:08:49.008Z,272.00
2018-06-03T04:09:49.142Z,280.00
2018-06-03T04:10:49.282Z,292.00
2018-06-03T04:11:49.533Z,304.00
2018-06-03T04:12:49.642Z,320.00
2018-06-03T04:13:49.658Z,328.00
2018-06-03T04:14:49.798Z,316.00
2018-06-03T04:15:49.940Z,312.00
2018-06-03T04:16:50.081Z,300.00
2018-06-03T04:17:50.293Z,304.00
2018-06-03T04:18:50.436Z,316.00
2018-06-03T04:19:50.511Z,324.00
2018-06-03T04:20:50.525Z,340.00
2018-06-03T04:21:50.724Z,340.00
2018-06-03T04:22:50.776Z,348.00
2018-06-03T04:23:50.944Z,364.00
2018-06-03T04:24:51.158Z,380.00
2018-06-03T04:25:51.929Z,400.00
2018-06-03T04:26:51.371Z,420.00
2018-06-03T04:27:51.589Z,428.00
2018-06-03T04:28:51.597Z,436.00
2018-06-03T04:29:51.805Z,436.00
2018-06-03T04:30:51.936Z,440.00
2018-06-03T04:31:52.021Z,440.00
2018-06-03T04:32:52.034Z,440.00
2018-06-03T04:33:52.174Z,448.00
2018-06-03T04:34:52.336Z,448.00
2018-06-03T04:35:52.470Z,472.00
2018-06-03T04:36:52.604Z,480.00
2018-06-03T04:37:52.779Z,480.00
2018-06-03T04:38:53.681Z,484.00
2018-06-03T04:39:53.048Z,484.00
2018-06-03T04:40:53.252Z,476.00
2018-06-03T04:41:53.320Z,476.00
2018-06-03T04:42:53.565Z,496.00
2018-06-03T04:43:53.634Z,488.00
2018-06-03T04:44:53.849Z,492.00
2018-06-03T04:45:53.863Z,540.00
2018-06-03T04:46:54.017Z,616.00
2018-06-03T04:47:54.155Z,640.00
2018-06-03T04:48:54.290Z,668.00
2018-06-03T04:49:54.433Z,624.00
2018-06-03T04:50:54.588Z,612.00
2018-06-03T04:51:54.817Z,652.00
2018-06-03T04:52:54.925Z,616.00
2018-06-03T04:53:54.942Z,624.00
2018-06-03T04:54:55.103Z,712.00
2018-06-03T04:55:55.257Z,820.00
2018-06-03T04:56:55.394Z,892.00
2018-06-03T04:57:55.575Z,912.00
2018-06-03T04:58:55.816Z,912.00
2018-06-03T04:59:55.892Z,916.00
2018-06-03T05:00:55.910Z,932.00
2018-06-03T05:01:56.049Z,952.00
2018-06-03T05:02:56.193Z,972.00
2018-06-03T05:03:56.435Z,996.00
2018-06-03T05:04:56.552Z,988.00
2018-06-03T05:05:56.650Z,972.00
2018-06-03T05:06:56.763Z,956.00
2018-06-03T05:07:56.868Z,956.00
2018-06-03T05:08:56.979Z,952.00
2018-06-03T05:09:57.089Z,948.00
2018-06-03T05:10:57.199Z,936.00
2018-06-03T05:11:57.221Z,928.00
2018-06-03T05:12:57.415Z,924.00
2018-06-03T05:13:57.522Z,924.00
2018-06-03T05:14:57.542Z,912.00
2018-06-03T05:15:57.742Z,896.00
2018-06-03T05:16:57.879Z,888.00
2018-06-03T05:17:58.016Z,884.00
2018-06-03T05:18:58.159Z,876.00
2018-06-03T05:19:58.298Z,880.00
2018-06-03T05:20:58.446Z,880.00
2018-06-03T05:21:58.605Z,884.00
2018-06-03T05:22:58.815Z,900.00
2018-06-03T05:23:58.922Z,916.00
2018-06-03T05:24:58.942Z,928.00
2018-06-03T05:25:59.138Z,936.00
2018-06-03T05:26:59.156Z,924.00
2018-06-03T05:27:59.361Z,920.00
2018-06-03T05:28:59.465Z,928.00
2018-06-03T05:29:59.481Z,944.00
2018-06-03T05:30:59.620Z,980.00
2018-06-03T05:31:59.758Z,1000.00
2018-06-03T05:32:59.900Z,1020.00
2018-06-03T05:34:00.060Z,1044.00
2018-06-03T05:35:00.222Z,1008.00
2018-06-03T05:36:00.363Z,1040.00
2018-06-03T05:37:00.503Z,1096.00
2018-06-03T05:38:00.662Z,1128.00
2018-06-03T05:39:00.864Z,1148.00
2018-06-03T05:40:00.878Z,1136.00
2018-06-03T05:41:01.007Z,1132.00
2018-06-03T05:42:01.152Z,1144.00
2018-06-03T05:43:01.525Z,1176.00
2018-06-03T05:44:01.421Z,1224.00
2018-06-03T05:45:01.618Z,1260.00
2018-06-03T05:46:01.752Z,1312.00
2018-06-03T05:47:01.840Z,1372.00
2018-06-03T05:48:01.947Z,1424.00
2018-06-03T05:49:01.962Z,1448.00
2018-06-03T05:50:02.102Z,1424.00
2018-06-03T05:51:02.275Z,1428.00
2018-06-03T05:52:02.422Z,1448.00
2018-06-03T05:53:02.568Z,1504.00
2018-06-03T05:54:02.738Z,1516.00
2018-06-03T05:55:02.863Z,1508.00
2018-06-03T05:56:03.005Z,1524.00
2018-06-03T05:57:03.146Z,1512.00
2018-06-03T05:58:03.294Z,1568.00
2018-06-03T05:59:03.431Z,1604.00
2018-06-03T06:00:03.668Z,1676.00
2018-06-03T06:01:03.791Z,1792.00
2018-06-03T06:02:03.883Z,1908.00
2018-06-03T06:03:03.994Z,1880.00
2018-06-03T06:04:04.102Z,1860.00
2018-06-03T06:05:04.159Z,1868.00
2018-06-03T06:06:04.284Z,1868.00
2018-06-03T06:07:04.531Z,1828.00
2018-06-03T06:08:04.546Z,1668.00
2018-06-03T06:09:04.763Z,1492.00
2018-06-03T06:10:04.965Z,1384.00
2018-06-03T06:11:05.064Z,1356.00
2018-06-03T06:12:05.178Z,1360.00
2018-06-03T06:13:05.192Z,1400.00
2018-06-03T06:14:05.398Z,1452.00
2018-06-03T06:15:05.508Z,1448.00
2018-06-03T06:16:05.524Z,1464.00
2018-06-03T06:17:05.664Z,1456.00
2018-06-03T06:18:05.807Z,1468.00
2018-06-03T06:19:05.960Z,1512.00
2018-06-03T06:20:06.095Z,1600.00
2018-06-03T06:21:06.226Z,1660.00
2018-06-03T06:22:06.476Z,1688.00
2018-06-03T06:23:06.580Z,1684.00
2018-06-03T06:24:06.611Z,1708.00
2018-06-03T06:25:06.800Z,1696.00
2018-06-03T06:26:06.942Z,1688.00
2018-06-03T06:27:07.078Z,1836.00
2018-06-03T06:28:07.232Z,1868.00
2018-06-03T06:29:07.379Z,1788.00
2018-06-03T06:30:07.543Z,1876.00
2018-06-03T06:31:07.758Z,2092.00
2018-06-03T06:32:07.865Z,2052.00
2018-06-03T06:33:07.980Z,2036.00
2018-06-03T06:34:07.993Z,1936.00
2018-06-03T06:35:08.135Z,1800.00
2018-06-03T06:36:09.078Z,1824.00
2018-06-03T06:37:08.413Z,1980.00
2018-06-03T06:38:08.558Z,2112.00
2018-06-03T06:39:08.736Z,2104.00
2018-06-03T06:40:08.846Z,2192.00
2018-06-03T06:41:08.859Z,2184.00
2018-06-03T06:42:09.063Z,2288.00
2018-06-03T06:43:09.079Z,2488.00
2018-06-03T06:44:09.218Z,2552.00
2018-06-03T06:45:09.356Z,2616.00
2018-06-03T06:46:09.606Z,2624.00
2018-06-03T06:47:09.710Z,2592.00
2018-06-03T06:48:09.724Z,2636.00
2018-06-03T06:49:09.934Z,2688.00
2018-06-03T06:50:09.969Z,2728.00
2018-06-03T06:51:10.149Z,2712.00
2018-06-03T06:52:10.197Z,2688.00
2018-06-03T06:53:10.365Z,2672.00
2018-06-03T06:54:10.585Z,2652.00
2018-06-03T06:55:10.599Z,2628.00
2018-06-03T06:56:10.818Z,2600.00
2018-06-03T06:57:10.907Z,2568.00
2018-06-03T06:58:10.975Z,2528.00
2018-06-03T06:59:11.226Z,2492.00
2018-06-03T07:00:11.305Z,2456.00
2018-06-03T07:01:11.446Z,2416.00
2018-06-03T07:02:11.587Z,2344.00
2018-06-03T07:03:11.720Z,2272.00
2018-06-03T07:04:11.901Z,2200.00
2018-06-03T07:05:12.090Z,2136.00
2018-06-03T07:06:12.295Z,2096.00
2018-06-03T07:07:12.309Z,2036.00
2018-06-03T07:08:12.478Z,2064.00
2018-06-03T07:09:14.903Z,2080.00
2018-06-03T07:10:12.829Z,2104.00
2018-06-03T07:11:13.009Z,2120.00
2018-06-03T07:12:13.141Z,2124.00
2018-06-03T07:13:13.425Z,2116.00
2018-06-03T07:14:13.390Z,2092.00
2018-06-03T07:15:13.553Z,2072.00
2018-06-03T07:16:13.801Z,2192.00
2018-06-03T07:17:13.909Z,2240.00
2018-06-03T07:18:13.922Z,2252.00
2018-06-03T07:19:14.090Z,2348.00
2018-06-03T07:20:14.234Z,2456.00
2018-06-03T07:21:14.382Z,2604.00
2018-06-03T07:22:14.526Z,2772.00
2018-06-03T07:23:14.824Z,2908.00
2018-06-03T07:24:14.880Z,2992.00
2018-06-03T07:25:14.965Z,3032.00
2018-06-03T07:26:14.984Z,3016.00
2018-06-03T07:27:15.149Z,2968.00
2018-06-03T07:28:15.314Z,2924.00
2018-06-03T07:29:15.529Z,2896.00
2018-06-03T07:30:15.543Z,2844.00
2018-06-03T07:31:15.768Z,2696.00
2018-06-03T07:32:15.854Z,2556.00
2018-06-03T07:33:15.864Z,2288.00
2018-06-03T07:34:16.026Z,2080.00
2018-06-03T07:35:16.217Z,1856.00
2018-06-03T07:36:16.343Z,1736.00
2018-06-03T07:37:16.502Z,1652.00
2018-06-03T07:38:16.761Z,1572.00
2018-06-03T07:39:16.746Z,1516.00
2018-06-03T07:40:16.931Z,1520.00
2018-06-03T07:41:17.074Z,1528.00
2018-06-03T07:42:17.222Z,1760.00
2018-06-03T07:43:17.466Z,1704.00
2018-06-03T07:44:17.570Z,1764.00
2018-06-03T07:45:17.591Z,1784.00
2018-06-03T07:46:17.729Z,1800.00
2018-06-03T07:47:17.904Z,1820.00
2018-06-03T07:48:18.042Z,1848.00
2018-06-03T07:49:18.181Z,1880.00
2018-06-03T07:50:18.366Z,1912.00
2018-06-03T07:51:18.471Z,1928.00
2018-06-03T07:52:18.612Z,1972.00
2018-06-03T07:53:18.863Z,2020.00
2018-06-03T07:54:18.974Z,2048.00
2018-06-03T07:55:18.992Z,2056.00
2018-06-03T07:56:19.189Z,2072.00
2018-06-03T07:57:19.338Z,2092.00
2018-06-03T07:58:19.467Z,2108.00
2018-06-03T07:59:19.718Z,2068.00
2018-06-03T08:00:19.750Z,1912.00
2018-06-03T08:01:19.885Z,1948.00
2018-06-03T08:02:20.020Z,2056.00
2018-06-03T08:03:20.167Z,2328.00
2018-06-03T08:04:20.307Z,2480.00
2018-06-03T08:05:20.450Z,2424.00
2018-06-03T08:06:20.688Z,2616.00
2018-06-03T08:07:20.703Z,2456.00
2018-06-03T08:08:20.903Z,2376.00
2018-06-03T08:09:21.060Z,2440.00
2018-06-03T08:10:21.205Z,2568.00
2018-06-03T08:11:21.439Z,2644.00
2018-06-03T08:12:21.547Z,2852.00
2018-06-03T08:13:21.652Z,2728.00
2018-06-03T08:14:21.672Z,2896.00
2018-06-03T08:15:21.814Z,2872.00
2018-06-03T08:16:21.956Z,2716.00
2018-06-03T08:17:22.190Z,2688.00
2018-06-03T08:18:22.299Z,2596.00
2018-06-03T08:19:22.409Z,2476.00
2018-06-03T08:20:22.541Z,2328.00
2018-06-03T08:21:22.626Z,2200.00
2018-06-03T08:22:22.648Z,2208.00
2018-06-03T08:23:22.947Z,2208.00
2018-06-03T08:24:23.088Z,2180.00
2018-06-03T08:25:23.166Z,2184.00
2018-06-03T08:26:23.281Z,2172.00
2018-06-03T08:27:23.330Z,2148.00
2018-06-03T08:28:23.494Z,2144.00
2018-06-03T08:29:23.707Z,2164.00
2018-06-03T08:30:23.726Z,2224.00
2018-06-03T08:31:23.890Z,2260.00
2018-06-03T08:32:24.029Z,2284.00
2018-06-03T08:33:24.175Z,2304.00
2018-06-03T08:34:24.352Z,2320.00
2018-06-03T08:35:24.565Z,2344.00
2018-06-03T08:36:24.671Z,2416.00
2018-06-03T08:37:24.777Z,2468.00
2018-06-03T08:38:24.795Z,2568.00
2018-06-03T08:39:25.007Z,2608.00
2018-06-03T08:40:25.214Z,2612.00
2018-06-03T08:41:25.225Z,2984.00
2018-06-03T08:42:25.369Z,3176.00
2018-06-03T08:43:25.548Z,3272.00
2018-06-03T08:44:36.810Z,3244.00
2018-06-03T08:45:25.828Z,3340.00
2018-06-03T08:46:26.072Z,3468.00
2018-06-03T08:47:26.111Z,3504.00
2018-06-03T08:48:26.247Z,3420.00
2018-06-03T08:49:26.388Z,3540.00
2018-06-03T08:50:26.532Z,3692.00
2018-06-03T08:51:26.686Z,3816.00
2018-06-03T08:52:26.822Z,3708.00
2018-06-03T08:53:26.970Z,3408.00
2018-06-03T08:54:27.143Z,3280.00
2018-06-03T08:55:27.313Z,3312.00
2018-06-03T08:56:27.457Z,3316.00
2018-06-03T08:57:27.675Z,3436.00
2018-06-03T08:58:27.784Z,3376.00
2018-06-03T08:59:27.895Z,3672.00
2018-06-03T09:00:28.014Z,3620.00
2018-06-03T09:01:28.020Z,3728.00
2018-06-03T09:02:28.232Z,3656.00
2018-06-03T09:03:28.240Z,3720.00
2018-06-03T09:04:28.442Z,3804.00
2018-06-03T09:05:28.459Z,3800.00
2018-06-03T09:06:28.659Z,3812.00
2018-06-03T09:07:28.865Z,3868.00
2018-06-03T09:08:28.897Z,3648.00
2018-06-03T09:09:29.084Z,3560.00
2018-06-03T09:10:29.228Z,3800.00
2018-06-03T09:11:29.371Z,3928.00
2018-06-03T09:12:29.511Z,4004.00
2018-06-03T09:13:29.661Z,3924.00
2018-06-03T09:14:29.834Z,4064.00
2018-06-03T09:15:29.975Z,4088.00
2018-06-03T09:16:30.115Z,3976.00
2018-06-03T09:17:30.367Z,3800.00
2018-06-03T09:18:30.382Z,3684.00
2018-06-03T09:19:30.523Z,3432.00
2018-06-03T09:20:30.667Z,3404.00
2018-06-03T09:21:30.809Z,3624.00
2018-06-03T09:22:31.014Z,3696.00
2018-06-03T09:23:31.035Z,3828.00
2018-06-03T09:24:31.233Z,3840.00
2018-06-03T09:25:31.377Z,3864.00
2018-06-03T09:26:31.550Z,3712.00
2018-06-03T09:27:31.762Z,3712.00
2018-06-03T09:28:31.784Z,3732.00
2018-06-03T09:29:31.932Z,3724.00
2018-06-03T09:30:32.072Z,3804.00
2018-06-03T09:31:32.215Z,3580.00
2018-06-03T09:32:32.366Z,3312.00
2018-06-03T09:33:32.512Z,3304.00
2018-06-03T09:34:32.712Z,3436.00
2018-06-03T09:35:32.812Z,3636.00
2018-06-03T09:36:32.956Z,3672.00
2018-06-03T09:37:33.100Z,3684.00
2018-06-03T09:38:33.245Z,3876.00
2018-06-03T09:39:33.383Z,4224.00
2018-06-03T09:40:33.589Z,4396.00
2018-06-03T09:41:33.702Z,4316.00
2018-06-03T09:42:33.809Z,4216.00
2018-06-03T09:43:33.828Z,4024.00
2018-06-03T09:44:33.997Z,4092.00
2018-06-03T09:45:34.134Z,4288.00
2018-06-03T09:46:34.279Z,4420.00
2018-06-03T09:47:34.538Z,4376.00
2018-06-03T09:48:34.704Z,4304.00
2018-06-03T09:49:34.723Z,3916.00
2018-06-03T09:50:34.990Z,3968.00
2018-06-03T09:51:35.035Z,3904.00
2018-06-03T09:52:35.173Z,4044.00
2018-06-03T09:53:35.415Z,4184.00
2018-06-03T09:54:35.439Z,4752.00
2018-06-03T09:55:35.604Z,4876.00
2018-06-03T09:56:35.849Z,4856.00
2018-06-03T09:57:35.865Z,4868.00
2018-06-03T09:58:36.062Z,4588.00
2018-06-03T09:59:36.225Z,4552.00
2018-06-03T10:00:36.970Z,4620.00
2018-06-03T10:01:36.499Z,4772.00
2018-06-03T10:02:36.675Z,4616.00
2018-06-03T10:03:37.569Z,4272.00
2018-06-03T10:04:36.992Z,4320.00
2018-06-03T10:05:37.141Z,4068.00
2018-06-03T10:06:37.345Z,3808.00
2018-06-03T10:07:37.461Z,3484.00
2018-06-03T10:08:37.564Z,3244.00
2018-06-03T10:09:37.638Z,2940.00
2018-06-03T10:10:37.778Z,2752.00
2018-06-03T10:11:37.927Z,2880.00
2018-06-03T10:12:38.102Z,3100.00
2018-06-03T10:13:38.279Z,3168.00
2018-06-03T10:14:38.525Z,2828.00
2018-06-03T10:15:38.548Z,2972.00
2018-06-03T10:16:38.691Z,3084.00
2018-06-03T10:17:38.862Z,3312.00
2018-06-03T10:18:39.006Z,3544.00
2018-06-03T10:19:39.174Z,3752.00
2018-06-03T10:20:39.319Z,4020.00
2018-06-03T10:21:39.520Z,4120.00
2018-06-03T10:22:39.666Z,4048.00
2018-06-03T10:23:39.811Z,3892.00
2018-06-03T10:24:39.974Z,3804.00
2018-06-03T10:25:40.095Z,3944.00
2018-06-03T10:26:40.347Z,3556.00
2018-06-03T10:27:40.355Z,3552.00
2018-06-03T10:28:40.518Z,3652.00
2018-06-03T10:29:40.659Z,3648.00
2018-06-03T10:30:40.922Z,3644.00
2018-06-03T10:31:40.936Z,3828.00
2018-06-03T10:32:41.081Z,3920.00
2018-06-03T10:33:41.342Z,3812.00
2018-06-03T10:34:41.342Z,4064.00
2018-06-03T10:35:41.531Z,4208.00
2018-06-03T10:36:41.671Z,4320.00
2018-06-03T10:37:41.824Z,4376.00
2018-06-03T10:38:41.960Z,4336.00
2018-06-03T10:39:42.114Z,4264.00
2018-06-03T10:40:42.280Z,4192.00
2018-06-03T10:41:42.427Z,4224.00
2018-06-03T10:42:42.716Z,4196.00
2018-06-03T10:43:42.813Z,4232.00
2018-06-03T10:44:42.901Z,4300.00
2018-06-03T10:45:43.258Z,4496.00
2018-06-03T10:46:43.122Z,4640.00
2018-06-03T10:47:43.301Z,4676.00
2018-06-03T10:48:43.428Z,4604.00
2018-06-03T10:49:43.565Z,4552.00
2018-06-03T10:50:43.800Z,4376.00
2018-06-03T10:51:43.816Z,4576.00
2018-06-03T10:52:44.019Z,4296.00
2018-06-03T10:53:44.164Z,4660.00
2018-06-03T10:54:44.306Z,4652.00
2018-06-03T10:55:44.558Z,4928.00
2018-06-03T10:56:44.572Z,5048.00
2018-06-03T10:57:44.822Z,5088.00
2018-06-03T10:58:44.861Z,5084.00
2018-06-03T10:59:45.036Z,5060.00
2018-06-03T11:00:45.951Z,5184.00
2018-06-03T11:01:45.397Z,5348.00
2018-06-03T11:02:45.408Z,5428.00
2018-06-03T11:03:45.581Z,5404.00
2018-06-03T11:04:52.794Z,5436.00
2018-06-03T11:05:45.812Z,5452.00
2018-06-03T11:06:45.973Z,5432.00
2018-06-03T11:07:46.141Z,5400.00
2018-06-03T11:08:46.290Z,5480.00
2018-06-03T11:09:46.431Z,5516.00
2018-06-03T11:10:46.582Z,5604.00
2018-06-03T11:11:46.783Z,5596.00
2018-06-03T11:12:46.808Z,5636.00
2018-06-03T11:13:46.955Z,5644.00
2018-06-03T11:14:47.109Z,5624.00
2018-06-03T11:15:47.251Z,5612.00
2018-06-03T11:16:47.386Z,5532.00
2018-06-03T11:17:47.536Z,5456.00
2018-06-03T11:18:47.680Z,5416.00
2018-06-03T11:19:47.831Z,5508.00
2018-06-03T11:20:47.970Z,5644.00
2018-06-03T11:21:48.185Z,5892.00
2018-06-03T11:22:48.292Z,6060.00
2018-06-03T11:23:48.324Z,6096.00
2018-06-03T11:24:48.466Z,5852.00
2018-06-03T11:25:48.609Z,5744.00
2018-06-03T11:26:49.426Z,5604.00
2018-06-03T11:27:48.839Z,5944.00
2018-06-03T11:28:49.050Z,6020.00
2018-06-03T11:29:49.065Z,5892.00
2018-06-03T11:30:49.266Z,5748.00
2018-06-03T11:31:49.411Z,6116.00
2018-06-03T11:32:49.577Z,5604.00
2018-06-03T12:41:26.869Z,5848.00
2018-06-03T12:42:06.004Z,5868.00
2018-06-03T12:43:06.144Z,5912.00
2018-06-03T12:44:06.307Z,5972.00
2018-06-03T12:45:06.441Z,6088.00
2018-06-03T12:46:06.584Z,6120.00
2018-06-03T12:47:06.747Z,6148.00
2018-06-03T12:48:06.899Z,6208.00
2018-06-03T12:49:07.043Z,6320.00
2018-06-03T12:50:07.214Z,6720.00
2018-06-03T12:51:07.359Z,6912.00
2018-06-03T12:52:07.499Z,6868.00
2018-06-03T12:53:26.581Z,6716.00
2018-06-03T12:54:07.815Z,6620.00
2018-06-03T12:55:08.100Z,6796.00
2018-06-03T12:56:08.132Z,6988.00
2018-06-03T12:57:08.282Z,7060.00
2018-06-03T12:58:08.460Z,6904.00
2018-06-03T12:59:08.602Z,6644.00
2018-06-03T13:00:08.776Z,6516.00
2018-06-03T13:01:08.920Z,6344.00
2018-06-03T13:02:09.098Z,5652.00
2018-06-03T13:03:09.297Z,6036.00
2018-06-03T13:04:09.393Z,5580.00
2018-06-03T13:05:09.535Z,4828.00
2018-06-03T13:06:10.691Z,4832.00
2018-06-03T13:07:09.837Z,4876.00
2018-06-03T13:08:10.000Z,5000.00
2018-06-03T13:09:10.147Z,5164.00
2018-06-03T13:10:10.305Z,5416.00
2018-06-03T13:11:10.446Z,4784.00
2018-06-03T13:12:10.610Z,4868.00
2018-06-03T13:13:10.751Z,5272.00
2018-06-03T13:14:10.909Z,5660.00
2018-06-03T13:15:11.064Z,5816.00
2018-06-03T13:16:11.215Z,5620.00
2018-06-03T13:17:11.359Z,5480.00
2018-06-03T13:18:11.525Z,6036.00
2018-06-03T13:19:11.695Z,6344.00
2018-06-03T13:20:11.798Z,7076.00
2018-06-03T13:21:11.970Z,7524.00
2018-06-03T13:22:12.112Z,7620.00
2018-06-03T13:23:12.253Z,7588.00
2018-06-03T13:24:12.396Z,7604.00
2018-06-03T13:25:12.566Z,7648.00
2018-06-03T13:26:12.703Z,7452.00
2018-06-03T13:27:12.899Z,7304.00
2018-06-03T13:28:14.076Z,7132.00
2018-06-03T13:29:13.214Z,6896.00
2018-06-03T13:30:13.371Z,6208.00
2018-06-03T13:31:13.515Z,6952.00
2018-06-03T13:32:13.675Z,7328.00
2018-06-03T13:33:13.815Z,6976.00
2018-06-03T13:34:13.966Z,6796.00
2018-06-03T13:35:14.113Z,6648.00
2018-06-03T13:36:14.278Z,5956.00
2018-06-03T13:37:14.417Z,5908.00
2018-06-03T13:38:14.569Z,5844.00